Ft Sturla — IBXV — position and weather

sailwx.info

Track history (hours):
 
Tides and Currents Weather Stations Pressure Air Temp Water Temp Dewpoint Dewpoint Depression Visibility Wind Speed Wind Dir Waves Ship Positions

Ft Sturla

Last reported at 2016-Jul-01 00:32 UTC. Time now 2016-Jul-01 01:02 UTC.
Position N 43°24' E 004°60'.

Length 120 m; draft 5.6 m.

Type: Ship. MMSI: 247282200.

Date/timePositionNaut miles runAvg speedWind from/ knotsBaromVisibWave heightAir tempDewpointWater temp
2016-Jul-01 00:32N 43°24' E 004°60'0 0.0
2016-Jun-30 23:32N 43°24' E 004°60'0 0.0
2016-Jun-30 22:32N 43°24' E 004°60'0 0.0
2016-Jun-30 21:32N 43°24' E 004°60'0 0.0
2016-Jun-30 20:32N 43°24' E 004°60'0 0.0
2016-Jun-30 19:32N 43°24' E 004°60'0 0.0
2016-Jun-30 18:26N 43°24' E 004°60'0 0.2
2016-Jun-30 17:33N 43°24' E 004°60'1 1.2
2016-Jun-30 16:21N 43°24' E 004°57'0 0.0
2016-Jun-30 15:14N 43°24' E 004°57'0 0.0
2016-Jun-30 14:27N 43°24' E 004°58'0 0.0
2016-Jun-30 11:23N 43°24' E 004°57'0 0.0
2016-Jun-30 09:33N 43°24' E 004°57'0 0.0
2016-Jun-30 07:33N 43°24' E 004°57'0 0.0
2016-Jun-30 06:30N 43°24' E 004°57'0 0.1
2016-Jun-30 04:27N 43°24' E 004°57'0 0.0
2016-Jun-30 01:33N 43°24' E 004°57'0 0.0
2016-Jun-30 00:26N 43°24' E 004°57'0 0.0
2016-Jun-29 19:33N 43°24' E 004°57'0 0.0
2016-Jun-29 10:33N 43°24' E 004°57'87 8.4
2016-Jun-29 00:13N 42°52' E 006°48'6 9.8
2016-Jun-28 23:33N 42°55' E 006°56'10 9.9
2016-Jun-28 22:33N 42°60' E 007°08'10 9.9
2016-Jun-28 21:34N 43°04' E 007°19'10 9.6
2016-Jun-28 20:33N 43°09' E 007°31'11 9.7
2016-Jun-28 19:25N 43°15' E 007°44'9 9.8
2016-Jun-28 18:31N 43°18' E 007°55'9 9.8
2016-Jun-28 17:33N 43°23' E 008°06'1010.0
2016-Jun-28 16:33N 43°27' E 008°19'1010.0
2016-Jun-28 15:33N 43°31' E 008°32'2 2.4
2016-Jun-28 14:34N 43°31' E 008°35'6 6.3
2016-Jun-28 13:33N 43°36' E 008°41'1010.0
2016-Jun-28 12:33N 43°43' E 008°51'10 9.8
2016-Jun-28 11:33N 43°50' E 008°60'10 9.7
2016-Jun-28 10:33N 43°59' E 009°06'10 9.7
2016-Jun-28 09:33N 44°08' E 009°02'10 9.8
2016-Jun-28 08:33N 44°18' E 008°59'7 6.2
2016-Jun-28 07:28N 44°24' E 008°55'0 0.0
2016-Jun-28 04:31N 44°24' E 008°55'0 0.0
2016-Jun-28 03:31N 44°24' E 008°55'0 0.0
2016-Jun-28 02:31N 44°24' E 008°55'0 0.0
2016-Jun-28 01:31N 44°24' E 008°55'0 0.0
2016-Jun-28 00:22N 44°24' E 008°55'0 0.0
2016-Jun-27 23:31N 44°24' E 008°55'0 0.0
2016-Jun-27 22:31N 44°24' E 008°55'0 0.0
2016-Jun-27 21:31N 44°24' E 008°55'0 0.0
2016-Jun-27 20:31N 44°24' E 008°55'0 0.0
2016-Jun-27 19:31N 44°24' E 008°55'0 0.0
2016-Jun-27 18:31N 44°24' E 008°55'0 0.0
2016-Jun-27 17:28N 44°24' E 008°55'0 0.0
2016-Jun-27 16:31N 44°24' E 008°55'0 0.0
2016-Jun-27 15:31N 44°24' E 008°55'0 0.0
2016-Jun-27 14:31N 44°24' E 008°55'0 0.0
2016-Jun-27 13:31N 44°24' E 008°55'0 0.0
2016-Jun-27 12:31N 44°24' E 008°55'0 0.0
2016-Jun-27 11:32N 44°24' E 008°55'5 5.1
2016-Jun-27 10:33N 44°20' E 008°59'6 5.9
2016-Jun-27 09:33N 44°23' E 008°52'0 0.2
2016-Jun-27 08:32N 44°24' E 008°52'0 0.0
2016-Jun-27 07:32N 44°24' E 008°52'0 0.0
2016-Jun-27 06:32N 44°24' E 008°52'0 0.0
2016-Jun-27 05:32N 44°24' E 008°52'0 0.0
2016-Jun-27 04:32N 44°24' E 008°52'0 0.0
2016-Jun-27 03:32N 44°24' E 008°52'0 0.0
2016-Jun-27 02:32N 44°24' E 008°52'0 0.0
2016-Jun-27 01:32N 44°24' E 008°52'0 0.0
2016-Jun-27 00:32N 44°24' E 008°52'0 0.0
2016-Jun-26 23:32N 44°24' E 008°52'0 0.0
2016-Jun-26 22:29N 44°24' E 008°52'0 0.0
2016-Jun-26 21:29N 44°24' E 008°52'0 0.0
2016-Jun-26 20:33N 44°24' E 008°52'0 0.0
2016-Jun-26 19:33N 44°24' E 008°52'0 0.0
2016-Jun-26 18:33N 44°24' E 008°52'0 0.0
2016-Jun-26 17:33N 44°24' E 008°52'0 0.1
2016-Jun-26 16:33N 44°24' E 008°52'0 0.0
2016-Jun-26 15:33N 44°24' E 008°53'0 0.0
2016-Jun-26 14:33N 44°24' E 008°53'0 0.2
2016-Jun-26 13:33N 44°23' E 008°53'4 4.5
2016-Jun-26 12:33N 44°19' E 008°54'9 9.4
2016-Jun-26 11:33N 44°12' E 009°03'1110.7
2016-Jun-26 10:33N 44°03' E 009°09'1110.6
2016-Jun-26 09:33N 43°53' E 009°15'1110.6
2016-Jun-26 08:33N 43°43' E 009°20'9 9.2
2016-Jun-26 07:33N 43°34' E 009°24'4 4.1
2016-Jun-26 06:33N 43°30' E 009°25'10 9.6
2016-Jun-26 05:33N 43°21' E 009°30'1010.4
2016-Jun-26 04:33N 43°11' E 009°35'1110.9
2016-Jun-26 03:33N 43°01' E 009°39'1010.4
2016-Jun-26 02:33N 42°51' E 009°42'1110.5
2016-Jun-26 01:32N 42°40' E 009°44'1210.5
2016-Jun-26 00:24N 42°28' E 009°46'5010.2
2016-Jun-25 19:29N 41°38' E 009°53'22910.0
2016-Jun-24 20:33N 38°07' E 011°46'42 9.6
2016-Jun-24 16:11N 37°31' E 012°15'7810.2
2016-Jun-24 08:31N 36°44' E 013°33'9 9.5
2016-Jun-24 07:33N 36°38' E 013°42'3010.0
2016-Jun-24 04:33N 36°18' E 014°10'10 9.9
2016-Jun-24 03:33N 36°11' E 014°19'1010.0
2016-Jun-24 02:33N 36°05' E 014°28'9 9.5
2016-Jun-24 01:33N 35°58' E 014°37'0 0.5
2016-Jun-24 00:33N 35°58' E 014°37'5 5.3
2016-Jun-23 23:33N 35°57' E 014°44'6 3.1
2016-Jun-23 21:31N 35°55' E 014°51'0 0.1
2016-Jun-23 20:28N 35°55' E 014°51'0 0.1
2016-Jun-23 19:31N 35°55' E 014°51'0 0.0
2016-Jun-23 18:31N 35°55' E 014°51'0 0.0
2016-Jun-23 17:28N 35°55' E 014°51'0 0.0
2016-Jun-23 16:31N 35°55' E 014°51'0 0.0
2016-Jun-23 15:28N 35°55' E 014°51'0 0.1
2016-Jun-23 14:31N 35°55' E 014°51'0 0.0
2016-Jun-23 13:31N 35°55' E 014°51'0 0.0
2016-Jun-23 12:31N 35°55' E 014°51'0 0.0
2016-Jun-23 11:31N 35°55' E 014°51'0 0.0
2016-Jun-23 10:31N 35°55' E 014°51'0 0.0
2016-Jun-23 09:25N 35°55' E 014°51'0 0.0
2016-Jun-23 08:33N 35°55' E 014°51'2 1.9
2016-Jun-23 07:33N 35°55' E 014°48'9 4.7
2016-Jun-23 05:33N 35°56' E 014°37'6 5.9
2016-Jun-23 04:33N 35°56' E 014°44'4 4.1
2016-Jun-23 03:33N 35°56' E 014°49'0 0.0
2016-Jun-23 02:33N 35°56' E 014°49'0 0.0
2016-Jun-23 01:33N 35°56' E 014°49'0 0.0
2016-Jun-23 00:33N 35°56' E 014°49'0 0.0
2016-Jun-22 23:33N 35°56' E 014°49'0 0.0
2016-Jun-22 22:33N 35°56' E 014°49'0 0.0
2016-Jun-22 21:33N 35°56' E 014°49'0 0.0
2016-Jun-22 20:33N 35°56' E 014°49'0 0.0
2016-Jun-22 19:27N 35°56' E 014°49'0 0.1
2016-Jun-22 18:30N 35°56' E 014°49'0 0.0
2016-Jun-22 17:33N 35°56' E 014°49'0 0.0
2016-Jun-22 16:33N 35°56' E 014°49'0 0.0
2016-Jun-22 15:18N 35°56' E 014°49'0 0.0
2016-Jun-22 14:30N 35°56' E 014°49'0 0.0
2016-Jun-22 13:33N 35°56' E 014°49'0 0.0
2016-Jun-22 12:33N 35°56' E 014°49'0 0.0
2016-Jun-22 11:33N 35°56' E 014°49'0 0.0
2016-Jun-22 10:33N 35°56' E 014°49'0 0.0
2016-Jun-22 09:33N 35°56' E 014°49'0 0.0
2016-Jun-22 08:33N 35°56' E 014°49'0 0.0
2016-Jun-22 07:33N 35°56' E 014°49'0 0.0
2016-Jun-22 06:33N 35°56' E 014°49'0 0.0
2016-Jun-22 05:30N 35°56' E 014°49'0 0.0
2016-Jun-22 04:33N 35°56' E 014°49'0 0.0
2016-Jun-22 03:33N 35°56' E 014°49'0 0.0
2016-Jun-22 02:27N 35°56' E 014°49'0 0.0
2016-Jun-22 01:33N 35°56' E 014°49'0 0.0
2016-Jun-22 00:33N 35°56' E 014°49'0 0.0
2016-Jun-21 23:30N 35°56' E 014°49'0 0.0
2016-Jun-21 22:30N 35°56' E 014°49'0 0.0
2016-Jun-21 21:33N 35°56' E 014°49'0 0.0
2016-Jun-21 20:21N 35°56' E 014°49'0 0.0
2016-Jun-21 19:27N 35°56' E 014°49'0 0.0
2016-Jun-21 18:33N 35°56' E 014°49'0 0.0
2016-Jun-21 17:33N 35°56' E 014°49'0 0.0
2016-Jun-21 16:33N 35°56' E 014°49'0 0.0
2016-Jun-21 15:33N 35°56' E 014°49'0 0.0
2016-Jun-21 14:33N 35°56' E 014°49'0 0.0
2016-Jun-21 13:18N 35°56' E 014°49'0 0.0
2016-Jun-21 12:33N 35°56' E 014°49'0 0.0
2016-Jun-21 11:24N 35°56' E 014°49'0 0.0
2016-Jun-21 10:33N 35°56' E 014°49'0 0.0
2016-Jun-21 09:21N 35°56' E 014°49'0 0.0
2016-Jun-21 08:30N 35°56' E 014°49'0 0.0
2016-Jun-21 07:33N 35°56' E 014°49'0 0.0
2016-Jun-21 03:27N 35°56' E 014°49'0 0.0
2016-Jun-21 02:30N 35°56' E 014°49'0 0.0
2016-Jun-21 01:33N 35°56' E 014°49'  
Track history (hours):
 
Tides and Currents Weather Stations Pressure Air Temp Water Temp Dewpoint Dewpoint Depression Visibility Wind Speed Wind Dir Waves Ship Positions

Ft Sturla

Last reported at 2016-Jul-01 00:32 UTC. Time now 2016-Jul-01 01:02 UTC.
Position N 43°24' E 004°60'.

Length 120 m; draft 5.6 m.

Type: Ship. MMSI: 247282200.

Date/timePositionNaut miles runAvg speedWind from/ knotsBaromVisibWave heightAir tempDewpointWater temp
2016-Jul-01 00:32N 43°24' E 004°60'0 0.0
2016-Jun-30 23:32N 43°24' E 004°60'0 0.0
2016-Jun-30 22:32N 43°24' E 004°60'0 0.0
2016-Jun-30 21:32N 43°24' E 004°60'0 0.0
2016-Jun-30 20:32N 43°24' E 004°60'0 0.0
2016-Jun-30 19:32N 43°24' E 004°60'0 0.0
2016-Jun-30 18:26N 43°24' E 004°60'0 0.2
2016-Jun-30 17:33N 43°24' E 004°60'1 1.2
2016-Jun-30 16:21N 43°24' E 004°57'0 0.0
2016-Jun-30 15:14N 43°24' E 004°57'0 0.0
2016-Jun-30 14:27N 43°24' E 004°58'0 0.0
2016-Jun-30 11:23N 43°24' E 004°57'0 0.0
2016-Jun-30 09:33N 43°24' E 004°57'0 0.0
2016-Jun-30 07:33N 43°24' E 004°57'0 0.0
2016-Jun-30 06:30N 43°24' E 004°57'0 0.1
2016-Jun-30 04:27N 43°24' E 004°57'0 0.0
2016-Jun-30 01:33N 43°24' E 004°57'0 0.0
2016-Jun-30 00:26N 43°24' E 004°57'0 0.0
2016-Jun-29 19:33N 43°24' E 004°57'0 0.0
2016-Jun-29 10:33N 43°24' E 004°57'87 8.4
2016-Jun-29 00:13N 42°52' E 006°48'6 9.8
2016-Jun-28 23:33N 42°55' E 006°56'10 9.9
2016-Jun-28 22:33N 42°60' E 007°08'10 9.9
2016-Jun-28 21:34N 43°04' E 007°19'10 9.6
2016-Jun-28 20:33N 43°09' E 007°31'11 9.7
2016-Jun-28 19:25N 43°15' E 007°44'9 9.8
2016-Jun-28 18:31N 43°18' E 007°55'9 9.8
2016-Jun-28 17:33N 43°23' E 008°06'1010.0
2016-Jun-28 16:33N 43°27' E 008°19'1010.0
2016-Jun-28 15:33N 43°31' E 008°32'2 2.4
2016-Jun-28 14:34N 43°31' E 008°35'6 6.3
2016-Jun-28 13:33N 43°36' E 008°41'1010.0
2016-Jun-28 12:33N 43°43' E 008°51'10 9.8
2016-Jun-28 11:33N 43°50' E 008°60'10 9.7
2016-Jun-28 10:33N 43°59' E 009°06'10 9.7
2016-Jun-28 09:33N 44°08' E 009°02'10 9.8
2016-Jun-28 08:33N 44°18' E 008°59'7 6.2
2016-Jun-28 07:28N 44°24' E 008°55'0 0.0
2016-Jun-28 04:31N 44°24' E 008°55'0 0.0
2016-Jun-28 03:31N 44°24' E 008°55'0 0.0
2016-Jun-28 02:31N 44°24' E 008°55'0 0.0
2016-Jun-28 01:31N 44°24' E 008°55'0 0.0
2016-Jun-28 00:22N 44°24' E 008°55'0 0.0
2016-Jun-27 23:31N 44°24' E 008°55'0 0.0
2016-Jun-27 22:31N 44°24' E 008°55'0 0.0
2016-Jun-27 21:31N 44°24' E 008°55'0 0.0
2016-Jun-27 20:31N 44°24' E 008°55'0 0.0
2016-Jun-27 19:31N 44°24' E 008°55'0 0.0
2016-Jun-27 18:31N 44°24' E 008°55'0 0.0
2016-Jun-27 17:28N 44°24' E 008°55'0 0.0
2016-Jun-27 16:31N 44°24' E 008°55'0 0.0
2016-Jun-27 15:31N 44°24' E 008°55'0 0.0
2016-Jun-27 14:31N 44°24' E 008°55'0 0.0
2016-Jun-27 13:31N 44°24' E 008°55'0 0.0
2016-Jun-27 12:31N 44°24' E 008°55'0 0.0
2016-Jun-27 11:32N 44°24' E 008°55'5 5.1
2016-Jun-27 10:33N 44°20' E 008°59'6 5.9
2016-Jun-27 09:33N 44°23' E 008°52'0 0.2
2016-Jun-27 08:32N 44°24' E 008°52'0 0.0
2016-Jun-27 07:32N 44°24' E 008°52'0 0.0
2016-Jun-27 06:32N 44°24' E 008°52'0 0.0
2016-Jun-27 05:32N 44°24' E 008°52'0 0.0
2016-Jun-27 04:32N 44°24' E 008°52'0 0.0
2016-Jun-27 03:32N 44°24' E 008°52'0 0.0
2016-Jun-27 02:32N 44°24' E 008°52'0 0.0
2016-Jun-27 01:32N 44°24' E 008°52'0 0.0
2016-Jun-27 00:32N 44°24' E 008°52'0 0.0
2016-Jun-26 23:32N 44°24' E 008°52'0 0.0
2016-Jun-26 22:29N 44°24' E 008°52'0 0.0
2016-Jun-26 21:29N 44°24' E 008°52'0 0.0
2016-Jun-26 20:33N 44°24' E 008°52'0 0.0
2016-Jun-26 19:33N 44°24' E 008°52'0 0.0
2016-Jun-26 18:33N 44°24' E 008°52'0 0.0
2016-Jun-26 17:33N 44°24' E 008°52'0 0.1
2016-Jun-26 16:33N 44°24' E 008°52'0 0.0
2016-Jun-26 15:33N 44°24' E 008°53'0 0.0
2016-Jun-26 14:33N 44°24' E 008°53'0 0.2
2016-Jun-26 13:33N 44°23' E 008°53'4 4.5
2016-Jun-26 12:33N 44°19' E 008°54'9 9.4
2016-Jun-26 11:33N 44°12' E 009°03'1110.7
2016-Jun-26 10:33N 44°03' E 009°09'1110.6
2016-Jun-26 09:33N 43°53' E 009°15'1110.6
2016-Jun-26 08:33N 43°43' E 009°20'9 9.2
2016-Jun-26 07:33N 43°34' E 009°24'4 4.1
2016-Jun-26 06:33N 43°30' E 009°25'10 9.6
2016-Jun-26 05:33N 43°21' E 009°30'1010.4
2016-Jun-26 04:33N 43°11' E 009°35'1110.9
2016-Jun-26 03:33N 43°01' E 009°39'1010.4
2016-Jun-26 02:33N 42°51' E 009°42'1110.5
2016-Jun-26 01:32N 42°40' E 009°44'1210.5
2016-Jun-26 00:24N 42°28' E 009°46'5010.2
2016-Jun-25 19:29N 41°38' E 009°53'22910.0
2016-Jun-24 20:33N 38°07' E 011°46'42 9.6
2016-Jun-24 16:11N 37°31' E 012°15'7810.2
2016-Jun-24 08:31N 36°44' E 013°33'9 9.5
2016-Jun-24 07:33N 36°38' E 013°42'3010.0
2016-Jun-24 04:33N 36°18' E 014°10'10 9.9
2016-Jun-24 03:33N 36°11' E 014°19'1010.0
2016-Jun-24 02:33N 36°05' E 014°28'9 9.5
2016-Jun-24 01:33N 35°58' E 014°37'0 0.5
2016-Jun-24 00:33N 35°58' E 014°37'5 5.3
2016-Jun-23 23:33N 35°57' E 014°44'6 3.1
2016-Jun-23 21:31N 35°55' E 014°51'0 0.1
2016-Jun-23 20:28N 35°55' E 014°51'0 0.1
2016-Jun-23 19:31N 35°55' E 014°51'0 0.0
2016-Jun-23 18:31N 35°55' E 014°51'0 0.0
2016-Jun-23 17:28N 35°55' E 014°51'0 0.0
2016-Jun-23 16:31N 35°55' E 014°51'0 0.0
2016-Jun-23 15:28N 35°55' E 014°51'0 0.1
2016-Jun-23 14:31N 35°55' E 014°51'0 0.0
2016-Jun-23 13:31N 35°55' E 014°51'0 0.0
2016-Jun-23 12:31N 35°55' E 014°51'0 0.0
2016-Jun-23 11:31N 35°55' E 014°51'0 0.0
2016-Jun-23 10:31N 35°55' E 014°51'0 0.0
2016-Jun-23 09:25N 35°55' E 014°51'0 0.0
2016-Jun-23 08:33N 35°55' E 014°51'2 1.9
2016-Jun-23 07:33N 35°55' E 014°48'9 4.7
2016-Jun-23 05:33N 35°56' E 014°37'6 5.9
2016-Jun-23 04:33N 35°56' E 014°44'4 4.1
2016-Jun-23 03:33N 35°56' E 014°49'0 0.0
2016-Jun-23 02:33N 35°56' E 014°49'0 0.0
2016-Jun-23 01:33N 35°56' E 014°49'0 0.0
2016-Jun-23 00:33N 35°56' E 014°49'0 0.0
2016-Jun-22 23:33N 35°56' E 014°49'0 0.0
2016-Jun-22 22:33N 35°56' E 014°49'0 0.0
2016-Jun-22 21:33N 35°56' E 014°49'0 0.0
2016-Jun-22 20:33N 35°56' E 014°49'0 0.0
2016-Jun-22 19:27N 35°56' E 014°49'0 0.1
2016-Jun-22 18:30N 35°56' E 014°49'0 0.0
2016-Jun-22 17:33N 35°56' E 014°49'0 0.0
2016-Jun-22 16:33N 35°56' E 014°49'0 0.0
2016-Jun-22 15:18N 35°56' E 014°49'0 0.0
2016-Jun-22 14:30N 35°56' E 014°49'0 0.0
2016-Jun-22 13:33N 35°56' E 014°49'0 0.0
2016-Jun-22 12:33N 35°56' E 014°49'0 0.0
2016-Jun-22 11:33N 35°56' E 014°49'0 0.0
2016-Jun-22 10:33N 35°56' E 014°49'0 0.0
2016-Jun-22 09:33N 35°56' E 014°49'0 0.0
2016-Jun-22 08:33N 35°56' E 014°49'0 0.0
2016-Jun-22 07:33N 35°56' E 014°49'0 0.0
2016-Jun-22 06:33N 35°56' E 014°49'0 0.0
2016-Jun-22 05:30N 35°56' E 014°49'0 0.0
2016-Jun-22 04:33N 35°56' E 014°49'0 0.0
2016-Jun-22 03:33N 35°56' E 014°49'0 0.0
2016-Jun-22 02:27N 35°56' E 014°49'0 0.0
2016-Jun-22 01:33N 35°56' E 014°49'0 0.0
2016-Jun-22 00:33N 35°56' E 014°49'0 0.0
2016-Jun-21 23:30N 35°56' E 014°49'0 0.0
2016-Jun-21 22:30N 35°56' E 014°49'0 0.0
2016-Jun-21 21:33N 35°56' E 014°49'0 0.0
2016-Jun-21 20:21N 35°56' E 014°49'0 0.0
2016-Jun-21 19:27N 35°56' E 014°49'0 0.0
2016-Jun-21 18:33N 35°56' E 014°49'0 0.0
2016-Jun-21 17:33N 35°56' E 014°49'0 0.0
2016-Jun-21 16:33N 35°56' E 014°49'0 0.0
2016-Jun-21 15:33N 35°56' E 014°49'0 0.0
2016-Jun-21 14:33N 35°56' E 014°49'0 0.0
2016-Jun-21 13:18N 35°56' E 014°49'0 0.0
2016-Jun-21 12:33N 35°56' E 014°49'0 0.0
2016-Jun-21 11:24N 35°56' E 014°49'0 0.0
2016-Jun-21 10:33N 35°56' E 014°49'0 0.0
2016-Jun-21 09:21N 35°56' E 014°49'0 0.0
2016-Jun-21 08:30N 35°56' E 014°49'0 0.0
2016-Jun-21 07:33N 35°56' E 014°49'0 0.0
2016-Jun-21 03:27N 35°56' E 014°49'0 0.0
2016-Jun-21 02:30N 35°56' E 014°49'0 0.0
2016-Jun-21 01:33N 35°56' E 014°49'  

Dump ship's entire track history